| time (UTC) | temp F | wind direction | speed knots | gust knots | rain 1hr in | rain 24hr in | rain mn in | humidity % | barometer mb |
| 20260508004549 | 48 | 252 | 6.1 | 8.7 | 0.00 | 0.00 | 0.00 | 84 | 1006.8 |
| 20260508003044 | 49 | 231 | 4.3 | 7.0 | 0.00 | 0.00 | 0.00 | 83 | 1006.6 |
| 20260508001548 | 49 | 247 | 5.2 | 8.7 | 0.00 | 0.00 | 0.00 | 82 | 1006.5 |
| 20260508000043 | 50 | 247 | 5.2 | 8.7 | 0.00 | 0.00 | 0.00 | 80 | 1006.7 |
| 20260507234543 | 51 | 225 | 7.8 | 13.9 | 0.00 | 0.00 | 0.00 | 77 | 1006.6 |
| 20260507233056 | 53 | 263 | 7.8 | 12.2 | 0.00 | 0.00 | 0.00 | 71 | 1006.7 |
| 20260507231540 | 53 | 252 | 7.0 | 10.4 | 0.00 | 0.00 | 0.00 | 73 | 1006.1 |
| 20260507230040 | 53 | 250 | 7.8 | 14.8 | 0.00 | 0.00 | 0.00 | 72 | 1006.0 |
| 20260507224548 | 54 | 256 | 8.7 | 14.8 | 0.00 | 0.00 | 0.00 | 72 | 1006.3 |
| 20260507223038 | 54 | 262 | 7.0 | 13.9 | 0.00 | 0.00 | 0.00 | 76 | 1006.1 |
| 20260507221538 | 52 | 218 | 7.0 | 12.2 | 0.00 | 0.00 | 0.00 | 80 | 1006.1 |
| 20260507220037 | 51 | 252 | 7.0 | 11.3 | 0.00 | 0.00 | 0.00 | 82 | 1006.3 |
| 20260507214536 | 51 | 241 | 7.0 | 14.8 | 0.00 | 0.00 | 0.00 | 81 | 1006.5 |
| 20260507213040 | 51 | 254 | 8.7 | 13.0 | 0.00 | 0.00 | 0.00 | 80 | 1006.5 |
| 20260507211535 | 52 | 242 | 7.0 | 13.0 | 0.00 | 0.00 | 0.00 | 82 | 1006.5 |
| 20260507210043 | 52 | 220 | 7.0 | 12.2 | 0.00 | 0.00 | 0.00 | 83 | 1006.4 |
| 20260507204534 | 53 | 241 | 5.2 | 11.3 | 0.00 | 0.00 | 0.00 | 83 | 1006.1 |
| 20260507203039 | 53 | 252 | 7.0 | 12.2 | 0.00 | 0.00 | 0.00 | 82 | 1006.2 |
| 20260507201537 | 55 | 225 | 6.1 | 14.8 | 0.00 | 0.00 | 0.00 | 81 | 1006.1 |
| 20260507200033 | 55 | 227 | 8.7 | 14.8 | 0.00 | 0.00 | 0.00 | 78 | 1005.9 |
| 20260507194559 | 56 | 237 | 7.8 | 16.5 | 0.00 | 0.00 | 0.00 | 79 | 1006.0 |
| 20260507193034 | 57 | 239 | 6.1 | 13.0 | 0.00 | 0.00 | 0.00 | 78 | 1006.2 |
| 20260507191533 | 58 | 156 | 5.2 | 12.2 | 0.00 | 0.00 | 0.00 | 76 | 1006.6 |
| 20260507190025 | 58 | 289 | 6.1 | 9.6 | 0.00 | 0.00 | 0.00 | 77 | 1006.6 |
| 20260507184533 | 57 | 200 | 4.3 | 11.3 | 0.00 | 0.00 | 0.00 | 79 | 1006.9 |
| 20260507183035 | 57 | 154 | 0.9 | 8.7 | 0.00 | 0.00 | 0.00 | 75 | 1007.0 |
| 20260507181521 | 57 | 270 | 7.8 | 11.3 | 0.00 | 0.00 | 0.00 | 73 | 1007.0 |
| 20260507180029 | 56 | 313 | 6.1 | 10.4 | 0.00 | 0.00 | 0.00 | 73 | 1007.4 |
| 20260507174518 | 55 | 302 | 5.2 | 10.4 | 0.00 | 0.00 | 0.00 | 77 | 1007.5 |
| 20260507173029 | 55 | 266 | 4.3 | 8.7 | 0.00 | 0.00 | 0.00 | 76 | 1007.8 |
| 20260507171530 | 55 | 305 | 4.3 | 11.3 | 0.00 | 0.00 | 0.00 | 77 | 1007.7 |
| 20260507170013 | 55 | 284 | 7.0 | 9.6 | 0.00 | 0.00 | 0.00 | 78 | 1007.9 |
| 20260507164510 | 54 | 279 | 7.0 | 10.4 | 0.00 | 0.00 | 0.00 | 81 | 1008.1 |
| 20260507163010 | 53 | 323 | 6.1 | 10.4 | 0.00 | 0.00 | 0.00 | 79 | 1008.0 |
| 20260507161507 | 54 | 308 | 6.1 | 8.7 | 0.00 | 0.00 | 0.00 | 83 | 1008.3 |
| 20260507160006 | 53 | 289 | 6.1 | 10.4 | 0.00 | 0.00 | 0.00 | 85 | 1008.3 |
| 20260507154506 | 51 | 326 | 5.2 | 9.6 | 0.00 | 0.00 | 0.00 | 87 | 1008.5 |
| 20260507153003 | 50 | 322 | 5.2 | 12.2 | 0.00 | 0.00 | 0.00 | 91 | 1008.2 |
| 20260507151503 | 51 | 329 | 6.1 | 10.4 | 0.00 | 0.00 | 0.00 | 92 | 1008.4 |
| 20260507150002 | 50 | 306 | 4.3 | 13.0 | 0.00 | 0.00 | 0.00 | 94 | 1008.8 |
| 20260507144603 | 49 | 310 | 7.8 | 11.3 | 0.00 | 0.00 | 0.00 | 94 | 1008.7 |
| 20260507143125 | 49 | 315 | 7.0 | 13.0 | 0.00 | 0.00 | 0.00 | 94 | 1008.4 |
| 20260507141634 | 49 | 325 | 8.7 | 12.2 | 0.00 | 0.00 | 0.00 | 95 | 1008.4 |
| 20260507140055 | 49 | 291 | 7.8 | 13.0 | 0.00 | 0.00 | 0.00 | 96 | 1008.5 |
| 20260507134602 | 49 | 330 | 8.7 | 13.9 | 0.00 | 0.00 | 0.00 | 96 | 1008.0 |
| 20260507133056 | 49 | 343 | 6.1 | 11.3 | 0.00 | 0.00 | 0.00 | 97 | 1007.9 |
| 20260507131553 | 49 | 331 | 7.0 | 13.0 | 0.00 | 0.00 | 0.00 | 97 | 1008.1 |
| 20260507130052 | 49 | 331 | 8.7 | 12.2 | 0.00 | 0.00 | 0.00 | 97 | 1008.3 |
| 20260507124551 | 49 | 311 | 11.3 | 15.6 | 0.00 | 0.00 | 0.00 | 96 | 1008.1 |
| 20260507123049 | 49 | 327 | 9.6 | 15.6 | 0.00 | 0.00 | 0.00 | 97 | 1007.9 |
| 20260507121546 | 49 | 339 | 9.6 | 14.8 | 0.00 | 0.00 | 0.00 | 98 | 1007.8 |
| 20260507120053 | 49 | 345 | 7.8 | 13.0 | 0.00 | 0.00 | 0.00 | 98 | 1008.1 |
| 20260507114545 | 49 | 347 | 9.6 | 13.9 | 0.00 | 0.00 | 0.00 | 98 | 1008.4 |
| 20260507113048 | 49 | 322 | 7.0 | 13.0 | 0.00 | 0.00 | 0.00 | 98 | 1007.7 |
| 20260507111540 | 50 | 322 | 9.6 | 18.2 | 0.00 | 0.00 | 0.00 | 98 | 1007.7 |
| 20260507110038 | 52 | 296 | 9.6 | 15.6 | 0.00 | 0.00 | 0.00 | 99 | 1007.5 |
| 20260507104536 | 52 | 308 | 5.2 | 9.6 | 0.00 | 0.00 | 0.00 | 99 | 1006.8 |
| 20260507103036 | 52 | 272 | 5.2 | 8.7 | 0.00 | 0.00 | 0.00 | 99 | 1006.7 |
| 20260507101535 | 52 | 260 | 4.3 | 9.6 | 0.00 | 0.00 | 0.00 | 99 | 1006.9 |
| 20260507100037 | 52 | 262 | 10.4 | 16.5 | 0.00 | 0.00 | 0.00 | 99 | 1007.3 |
| 20260507094534 | 52 | 252 | 5.2 | 9.6 | 0.00 | 0.00 | 0.00 | 99 | 1006.4 |
| 20260507093033 | 52 | 273 | 6.1 | 9.6 | 0.00 | 0.00 | 0.00 | 99 | 1006.5 |
| 20260507091531 | 51 | 253 | 8.7 | 13.9 | 0.00 | 0.00 | 0.00 | 99 | 1006.7 |
| 20260507090029 | 51 | 252 | 6.1 | 13.0 | 0.00 | 0.00 | 0.00 | 99 | 1006.5 |
| 20260507084528 | 51 | 238 | 7.0 | 14.8 | 0.00 | 0.00 | 0.00 | 99 | 1006.0 |
| 20260507083025 | 51 | 247 | 7.0 | 13.9 | 0.00 | 0.00 | 0.00 | 99 | 1006.3 |
| 20260507081531 | 52 | 259 | 7.8 | 13.9 | 0.00 | 0.00 | 0.00 | 99 | 1006.5 |
| 20260507080022 | 52 | 256 | 9.6 | 14.8 | 0.00 | 0.00 | 0.00 | 99 | 1006.4 |
| 20260507074528 | 52 | 220 | 8.7 | 13.9 | 0.00 | 0.00 | 0.00 | 99 | 1006.6 |
| 20260507073137 | 52 | 220 | 9.6 | 16.5 | 0.00 | 0.00 | 0.00 | 99 | 1007.1 |
| 20260507071517 | 52 | 231 | 12.2 | 18.2 | 0.00 | 0.00 | 0.00 | 98 | 1007.2 |
| 20260507070014 | 52 | 258 | 13.9 | 20.0 | 0.00 | 0.00 | 0.00 | 98 | 1007.2 |
| 20260507064511 | 52 | 266 | 9.6 | 19.1 | 0.00 | 0.00 | 0.00 | 98 | 1007.2 |
| 20260507063008 | 52 | 181 | 10.4 | 19.1 | 0.00 | 0.00 | 0.00 | 98 | 1006.9 |
| 20260507061509 | 52 | 227 | 10.4 | 19.1 | 0.00 | 0.00 | 0.00 | 98 | 1006.9 |
| 20260507060005 | 52 | 247 | 11.3 | 20.9 | 0.00 | 0.00 | 0.00 | 98 | 1007.1 |
| 20260507054501 | 53 | 249 | 13.0 | 20.9 | 0.00 | 0.00 | 0.00 | 98 | 1007.4 |
| 20260507053059 | 53 | 250 | 10.4 | 23.5 | 0.00 | 0.00 | 0.00 | 98 | 1007.7 |
| 20260507051556 | 53 | 235 | 13.9 | 22.6 | 0.00 | 0.00 | 0.00 | 98 | 1007.7 |
| 20260507050057 | 53 | 216 | 14.8 | 26.1 | 0.00 | 0.00 | 0.00 | 98 | 1007.9 |
| 20260507044552 | 53 | 238 | 12.2 | 20.9 | 0.00 | 0.00 | 0.00 | 98 | 1008.1 |
| 20260507043049 | 54 | 252 | 13.0 | 20.0 | 0.00 | 0.00 | 0.00 | 98 | 1008.2 |
| 20260507041547 | 54 | 231 | 13.0 | 25.2 | 0.00 | 0.00 | 0.00 | 98 | 1008.4 |
| 20260507040041 | 54 | 212 | 13.0 | 25.2 | 0.00 | 0.00 | 0.00 | 98 | 1008.4 |
| 20260507034546 | 54 | 214 | 13.0 | 25.2 | 0.00 | 0.00 | 0.00 | 98 | 1008.6 |
| 20260507033057 | 54 | 206 | 12.2 | 24.3 | 0.00 | 0.00 | 0.00 | 98 | 1008.6 |
| 20260507031538 | 54 | 207 | 13.0 | 20.9 | 0.00 | 0.00 | 0.00 | 98 | 1008.7 |
| 20260507030038 | 54 | 212 | 14.8 | 26.9 | 0.00 | 0.00 | 0.00 | 98 | 1008.7 |
| 20260507024541 | 55 | 241 | 14.8 | 31.3 | 0.00 | 0.00 | 0.00 | 98 | 1008.8 |
| 20260507023034 | 54 | 217 | 14.8 | 24.3 | 0.00 | 0.00 | 0.00 | 98 | 1009.0 |
| 20260507021533 | 54 | 231 | 9.6 | 24.3 | 0.00 | 0.00 | 0.00 | 97 | 1009.0 |
| 20260507020033 | 54 | 211 | 17.4 | 31.3 | 0.00 | 0.00 | 0.00 | 97 | 1009.4 |
| 20260507014531 | 54 | 227 | 13.9 | 31.3 | 0.00 | 0.00 | 0.00 | 97 | 1009.7 |
| 20260507013036 | 54 | 203 | 20.0 | 28.7 | 0.00 | 0.00 | 0.00 | 98 | 1009.4 |
| 20260507011533 | 53 | 240 | 15.6 | 29.5 | 0.00 | 0.00 | 0.00 | 97 | 1009.6 |
| 20260507010130 | 54 | 183 | 16.5 | 26.9 | 0.00 | 0.00 | 0.00 | 97 | 1009.5 |